Terminal Aerodrome Forecast
Issued by NWS Nashville, TN

Home | Current Version | Previous Version | Text Only | Print | Product List | Glossary On
Versions: 1 2 3 4 5 6 7 8 9 10 11 12 13 14 15 16 17
024
FTUS44 KOHX 140521
TAFCSV
TAF
KCSV 140521Z 1406/1506 08007KT P6SM OVC090
     FM141800 14007KT 6SM -SHSN BR OVC040
     FM142100 15008KT 3SM -SHSN BR OVC015
     FM150300 17007KT 4SM -SHSNPL BR OVC010=

USA.gov is the U.S. government's official web portal to all federal, state and local government web resources and services.